sensor_id;sensor_type;location;lat;lon;timestamp;P1;durP1;ratioP1;P2;durP2;ratioP2
46437;SDS011;32137;48.728;9.142;2023-02-28T00:00:12;5.38;;;3.35;;
46437;SDS011;32137;48.728;9.142;2023-02-28T00:02:40;4.03;;;2.53;;
46437;SDS011;32137;48.728;9.142;2023-02-28T00:05:07;5.75;;;2.97;;
46437;SDS011;32137;48.728;9.142;2023-02-28T00:07:34;5.72;;;2.83;;
46437;SDS011;32137;48.728;9.142;2023-02-28T00:10:00;7.53;;;3.72;;
46437;SDS011;32137;48.728;9.142;2023-02-28T00:12:27;10.40;;;3.17;;
46437;SDS011;32137;48.728;9.142;2023-02-28T00:14:53;4.93;;;3.08;;
46437;SDS011;32137;48.728;9.142;2023-02-28T00:17:18;7.03;;;3.40;;
46437;SDS011;32137;48.728;9.142;2023-02-28T00:19:50;9.40;;;3.95;;
46437;SDS011;32137;48.728;9.142;2023-02-28T00:22:16;7.68;;;3.63;;
46437;SDS011;32137;48.728;9.142;2023-02-28T00:24:43;6.43;;;3.33;;
46437;SDS011;32137;48.728;9.142;2023-02-28T00:27:09;8.90;;;3.70;;
46437;SDS011;32137;48.728;9.142;2023-02-28T00:29:35;5.68;;;3.17;;
46437;SDS011;32137;48.728;9.142;2023-02-28T00:32:00;3.97;;;3.05;;
46437;SDS011;32137;48.728;9.142;2023-02-28T00:34:26;5.00;;;2.97;;
46437;SDS011;32137;48.728;9.142;2023-02-28T00:36:52;5.97;;;3.20;;
46437;SDS011;32137;48.728;9.142;2023-02-28T00:39:17;7.38;;;4.22;;
46437;SDS011;32137;48.728;9.142;2023-02-28T00:41:43;5.15;;;3.22;;
46437;SDS011;32137;48.728;9.142;2023-02-28T00:44:09;5.78;;;3.25;;
46437;SDS011;32137;48.728;9.142;2023-02-28T00:46:34;7.93;;;3.50;;
46437;SDS011;32137;48.728;9.142;2023-02-28T00:49:00;5.80;;;3.42;;
46437;SDS011;32137;48.728;9.142;2023-02-28T00:51:25;5.78;;;3.72;;
46437;SDS011;32137;48.728;9.142;2023-02-28T00:53:51;10.45;;;3.28;;
46437;SDS011;32137;48.728;9.142;2023-02-28T00:56:16;6.28;;;3.05;;
46437;SDS011;32137;48.728;9.142;2023-02-28T00:58:42;7.05;;;3.28;;
46437;SDS011;32137;48.728;9.142;2023-02-28T01:01:07;3.88;;;2.80;;
46437;SDS011;32137;48.728;9.142;2023-02-28T01:03:33;4.70;;;3.00;;
46437;SDS011;32137;48.728;9.142;2023-02-28T01:05:59;9.52;;;3.60;;
46437;SDS011;32137;48.728;9.142;2023-02-28T01:08:24;5.40;;;3.05;;
46437;SDS011;32137;48.728;9.142;2023-02-28T01:10:51;6.38;;;3.47;;
46437;SDS011;32137;48.728;9.142;2023-02-28T01:13:16;8.07;;;3.15;;
46437;SDS011;32137;48.728;9.142;2023-02-28T01:15:48;5.20;;;2.60;;
46437;SDS011;32137;48.728;9.142;2023-02-28T01:18:16;5.25;;;2.88;;
46437;SDS011;32137;48.728;9.142;2023-02-28T01:20:42;6.25;;;3.13;;
46437;SDS011;32137;48.728;9.142;2023-02-28T01:23:07;6.35;;;3.30;;
46437;SDS011;32137;48.728;9.142;2023-02-28T01:25:36;6.97;;;3.60;;
46437;SDS011;32137;48.728;9.142;2023-02-28T01:28:02;5.65;;;3.65;;
46437;SDS011;32137;48.728;9.142;2023-02-28T01:30:28;8.13;;;3.38;;
46437;SDS011;32137;48.728;9.142;2023-02-28T01:32:54;6.20;;;3.45;;
46437;SDS011;32137;48.728;9.142;2023-02-28T01:35:19;4.70;;;2.70;;
46437;SDS011;32137;48.728;9.142;2023-02-28T01:37:45;4.53;;;2.78;;
46437;SDS011;32137;48.728;9.142;2023-02-28T01:40:11;5.40;;;3.47;;
46437;SDS011;32137;48.728;9.142;2023-02-28T01:42:37;9.27;;;3.35;;
46437;SDS011;32137;48.728;9.142;2023-02-28T01:45:08;5.32;;;3.22;;
46437;SDS011;32137;48.728;9.142;2023-02-28T01:47:46;7.03;;;3.83;;
46437;SDS011;32137;48.728;9.142;2023-02-28T01:50:16;5.80;;;3.67;;
46437;SDS011;32137;48.728;9.142;2023-02-28T01:52:45;7.38;;;4.20;;
46437;SDS011;32137;48.728;9.142;2023-02-28T01:55:13;5.97;;;2.85;;
46437;SDS011;32137;48.728;9.142;2023-02-28T01:57:43;5.03;;;2.90;;
46437;SDS011;32137;48.728;9.142;2023-02-28T02:00:14;8.98;;;4.88;;
46437;SDS011;32137;48.728;9.142;2023-02-28T02:02:41;8.73;;;4.45;;
46437;SDS011;32137;48.728;9.142;2023-02-28T02:05:11;9.70;;;3.58;;
46437;SDS011;32137;48.728;9.142;2023-02-28T02:07:41;9.80;;;4.15;;
46437;SDS011;32137;48.728;9.142;2023-02-28T02:13:02;8.88;;;3.50;;
46437;SDS011;32137;48.728;9.142;2023-02-28T02:18:28;7.25;;;4.00;;
46437;SDS011;32137;48.728;9.142;2023-02-28T02:24:15;10.82;;;4.43;;
46437;SDS011;32137;48.728;9.142;2023-02-28T02:27:08;12.40;;;6.03;;
46437;SDS011;32137;48.728;9.142;2023-02-28T02:37:43;7.55;;;4.15;;
46437;SDS011;32137;48.728;9.142;2023-02-28T02:40:16;12.13;;;4.85;;
46437;SDS011;32137;48.728;9.142;2023-02-28T02:42:55;6.82;;;4.07;;
46437;SDS011;32137;48.728;9.142;2023-02-28T02:45:31;6.63;;;4.07;;
46437;SDS011;32137;48.728;9.142;2023-02-28T02:48:27;9.68;;;3.63;;
46437;SDS011;32137;48.728;9.142;2023-02-28T02:50:58;6.82;;;4.85;;
46437;SDS011;32137;48.728;9.142;2023-02-28T02:53:34;8.00;;;3.92;;
46437;SDS011;32137;48.728;9.142;2023-02-28T02:56:24;5.25;;;3.85;;
46437;SDS011;32137;48.728;9.142;2023-02-28T02:58:54;6.78;;;4.32;;
46437;SDS011;32137;48.728;9.142;2023-02-28T03:01:24;8.88;;;4.30;;
46437;SDS011;32137;48.728;9.142;2023-02-28T03:03:57;10.57;;;4.80;;
46437;SDS011;32137;48.728;9.142;2023-02-28T03:06:25;6.53;;;3.92;;
46437;SDS011;32137;48.728;9.142;2023-02-28T03:08:51;9.10;;;4.60;;
46437;SDS011;32137;48.728;9.142;2023-02-28T03:11:18;12.65;;;4.68;;
46437;SDS011;32137;48.728;9.142;2023-02-28T03:13:52;8.02;;;4.20;;
46437;SDS011;32137;48.728;9.142;2023-02-28T03:21:37;7.35;;;4.70;;
46437;SDS011;32137;48.728;9.142;2023-02-28T03:26:39;7.25;;;4.45;;
46437;SDS011;32137;48.728;9.142;2023-02-28T03:29:28;8.85;;;4.63;;
46437;SDS011;32137;48.728;9.142;2023-02-28T03:32:05;6.90;;;4.50;;
46437;SDS011;32137;48.728;9.142;2023-02-28T03:34:41;7.47;;;4.32;;
46437;SDS011;32137;48.728;9.142;2023-02-28T03:37:13;6.78;;;4.65;;
46437;SDS011;32137;48.728;9.142;2023-02-28T03:39:44;9.65;;;5.38;;
46437;SDS011;32137;48.728;9.142;2023-02-28T03:42:20;10.93;;;5.00;;
46437;SDS011;32137;48.728;9.142;2023-02-28T03:44:58;7.63;;;4.75;;
46437;SDS011;32137;48.728;9.142;2023-02-28T03:47:35;6.78;;;4.50;;
46437;SDS011;32137;48.728;9.142;2023-02-28T03:52:52;8.00;;;4.40;;
46437;SDS011;32137;48.728;9.142;2023-02-28T03:55:30;7.13;;;5.30;;
46437;SDS011;32137;48.728;9.142;2023-02-28T03:58:14;7.97;;;4.68;;
46437;SDS011;32137;48.728;9.142;2023-02-28T04:00:55;7.47;;;4.80;;
46437;SDS011;32137;48.728;9.142;2023-02-28T04:03:32;8.93;;;4.97;;
46437;SDS011;32137;48.728;9.142;2023-02-28T04:05:58;8.57;;;5.05;;
46437;SDS011;32137;48.728;9.142;2023-02-28T04:08:24;8.70;;;4.82;;
46437;SDS011;32137;48.728;9.142;2023-02-28T04:10:54;8.48;;;5.13;;
46437;SDS011;32137;48.728;9.142;2023-02-28T04:13:26;7.78;;;5.10;;
46437;SDS011;32137;48.728;9.142;2023-02-28T04:15:51;11.10;;;5.85;;
46437;SDS011;32137;48.728;9.142;2023-02-28T04:18:16;6.95;;;5.25;;
46437;SDS011;32137;48.728;9.142;2023-02-28T04:20:42;8.90;;;4.57;;
46437;SDS011;32137;48.728;9.142;2023-02-28T04:23:08;12.27;;;5.78;;
46437;SDS011;32137;48.728;9.142;2023-02-28T04:25:33;9.25;;;5.18;;
46437;SDS011;32137;48.728;9.142;2023-02-28T04:27:59;7.72;;;5.35;;
46437;SDS011;32137;48.728;9.142;2023-02-28T04:30:25;6.60;;;5.15;;
46437;SDS011;32137;48.728;9.142;2023-02-28T04:32:50;9.25;;;5.35;;
46437;SDS011;32137;48.728;9.142;2023-02-28T04:35:16;8.02;;;5.43;;
46437;SDS011;32137;48.728;9.142;2023-02-28T04:37:41;9.63;;;6.20;;
46437;SDS011;32137;48.728;9.142;2023-02-28T04:40:07;12.93;;;6.00;;
46437;SDS011;32137;48.728;9.142;2023-02-28T04:42:33;8.80;;;5.05;;
46437;SDS011;32137;48.728;9.142;2023-02-28T04:45:01;9.68;;;5.90;;
46437;SDS011;32137;48.728;9.142;2023-02-28T04:47:28;10.15;;;5.90;;
46437;SDS011;32137;48.728;9.142;2023-02-28T04:49:53;10.35;;;5.22;;
46437;SDS011;32137;48.728;9.142;2023-02-28T04:52:19;9.57;;;5.63;;
46437;SDS011;32137;48.728;9.142;2023-02-28T04:54:44;7.28;;;5.32;;
46437;SDS011;32137;48.728;9.142;2023-02-28T04:57:10;11.40;;;5.70;;
46437;SDS011;32137;48.728;9.142;2023-02-28T04:59:35;9.80;;;5.78;;
46437;SDS011;32137;48.728;9.142;2023-02-28T05:02:01;12.02;;;6.47;;
46437;SDS011;32137;48.728;9.142;2023-02-28T05:04:31;9.43;;;5.50;;
46437;SDS011;32137;48.728;9.142;2023-02-28T05:07:00;7.68;;;5.65;;
46437;SDS011;32137;48.728;9.142;2023-02-28T05:09:26;12.43;;;5.32;;
46437;SDS011;32137;48.728;9.142;2023-02-28T05:11:53;7.85;;;4.97;;
46437;SDS011;32137;48.728;9.142;2023-02-28T05:14:18;11.60;;;6.28;;
46437;SDS011;32137;48.728;9.142;2023-02-28T05:16:44;12.82;;;5.88;;
46437;SDS011;32137;48.728;9.142;2023-02-28T05:19:09;14.05;;;6.30;;
46437;SDS011;32137;48.728;9.142;2023-02-28T05:21:36;10.82;;;6.63;;
46437;SDS011;32137;48.728;9.142;2023-02-28T05:24:06;9.52;;;6.07;;
46437;SDS011;32137;48.728;9.142;2023-02-28T05:26:34;9.52;;;5.50;;
46437;SDS011;32137;48.728;9.142;2023-02-28T05:29:01;11.60;;;6.18;;
46437;SDS011;32137;48.728;9.142;2023-02-28T05:31:27;8.48;;;5.60;;
46437;SDS011;32137;48.728;9.142;2023-02-28T05:33:53;9.15;;;6.05;;
46437;SDS011;32137;48.728;9.142;2023-02-28T05:36:19;15.23;;;7.05;;
46437;SDS011;32137;48.728;9.142;2023-02-28T05:38:48;14.18;;;7.43;;
46437;SDS011;32137;48.728;9.142;2023-02-28T05:41:15;12.25;;;6.65;;
46437;SDS011;32137;48.728;9.142;2023-02-28T05:43:41;8.93;;;5.95;;
46437;SDS011;32137;48.728;9.142;2023-02-28T05:46:08;9.30;;;5.90;;
46437;SDS011;32137;48.728;9.142;2023-02-28T05:48:35;10.30;;;6.53;;
46437;SDS011;32137;48.728;9.142;2023-02-28T05:51:02;11.68;;;6.47;;
46437;SDS011;32137;48.728;9.142;2023-02-28T05:53:29;14.68;;;7.15;;
46437;SDS011;32137;48.728;9.142;2023-02-28T05:55:55;11.57;;;6.45;;
46437;SDS011;32137;48.728;9.142;2023-02-28T05:58:21;17.85;;;6.45;;
46437;SDS011;32137;48.728;9.142;2023-02-28T06:00:47;9.30;;;6.05;;
46437;SDS011;32137;48.728;9.142;2023-02-28T06:03:13;13.35;;;7.53;;
46437;SDS011;32137;48.728;9.142;2023-02-28T06:05:39;11.02;;;6.70;;
46437;SDS011;32137;48.728;9.142;2023-02-28T06:08:04;12.75;;;7.55;;
46437;SDS011;32137;48.728;9.142;2023-02-28T06:10:32;12.65;;;7.53;;
46437;SDS011;32137;48.728;9.142;2023-02-28T06:13:02;12.90;;;6.75;;
46437;SDS011;32137;48.728;9.142;2023-02-28T06:15:29;14.30;;;8.23;;
46437;SDS011;32137;48.728;9.142;2023-02-28T06:17:54;13.35;;;7.28;;
46437;SDS011;32137;48.728;9.142;2023-02-28T06:20:23;14.80;;;7.43;;
46437;SDS011;32137;48.728;9.142;2023-02-28T06:22:53;16.33;;;7.93;;
46437;SDS011;32137;48.728;9.142;2023-02-28T06:25:20;14.25;;;7.10;;
46437;SDS011;32137;48.728;9.142;2023-02-28T06:27:46;11.75;;;7.03;;
46437;SDS011;32137;48.728;9.142;2023-02-28T06:30:13;17.10;;;7.95;;
46437;SDS011;32137;48.728;9.142;2023-02-28T06:32:39;13.18;;;6.95;;
46437;SDS011;32137;48.728;9.142;2023-02-28T06:35:04;14.80;;;7.97;;
46437;SDS011;32137;48.728;9.142;2023-02-28T06:37:30;12.65;;;7.13;;
46437;SDS011;32137;48.728;9.142;2023-02-28T06:39:57;13.88;;;7.68;;
46437;SDS011;32137;48.728;9.142;2023-02-28T06:42:23;14.57;;;7.97;;
46437;SDS011;32137;48.728;9.142;2023-02-28T06:44:53;14.18;;;7.30;;
46437;SDS011;32137;48.728;9.142;2023-02-28T06:47:22;14.60;;;8.85;;
46437;SDS011;32137;48.728;9.142;2023-02-28T06:49:48;18.33;;;9.23;;
46437;SDS011;32137;48.728;9.142;2023-02-28T06:52:14;15.90;;;7.55;;
46437;SDS011;32137;48.728;9.142;2023-02-28T06:54:39;19.90;;;7.55;;
46437;SDS011;32137;48.728;9.142;2023-02-28T06:57:05;12.05;;;7.80;;
46437;SDS011;32137;48.728;9.142;2023-02-28T06:59:30;12.93;;;8.02;;
46437;SDS011;32137;48.728;9.142;2023-02-28T07:01:56;11.90;;;7.10;;
46437;SDS011;32137;48.728;9.142;2023-02-28T07:04:21;16.40;;;8.57;;
46437;SDS011;32137;48.728;9.142;2023-02-28T07:06:47;15.68;;;8.68;;
46437;SDS011;32137;48.728;9.142;2023-02-28T07:09:13;13.55;;;7.07;;
46437;SDS011;32137;48.728;9.142;2023-02-28T07:11:39;12.23;;;7.00;;
46437;SDS011;32137;48.728;9.142;2023-02-28T07:14:05;15.90;;;7.93;;
46437;SDS011;32137;48.728;9.142;2023-02-28T07:16:31;11.85;;;7.57;;
46437;SDS011;32137;48.728;9.142;2023-02-28T07:18:57;16.23;;;8.27;;
46437;SDS011;32137;48.728;9.142;2023-02-28T07:21:22;13.60;;;8.55;;
46437;SDS011;32137;48.728;9.142;2023-02-28T07:23:48;15.38;;;8.73;;
46437;SDS011;32137;48.728;9.142;2023-02-28T07:26:15;13.82;;;8.65;;
46437;SDS011;32137;48.728;9.142;2023-02-28T07:28:42;12.35;;;8.60;;
46437;SDS011;32137;48.728;9.142;2023-02-28T07:31:09;13.27;;;8.02;;
46437;SDS011;32137;48.728;9.142;2023-02-28T07:33:36;13.68;;;8.85;;
46437;SDS011;32137;48.728;9.142;2023-02-28T07:36:02;16.38;;;9.68;;
46437;SDS011;32137;48.728;9.142;2023-02-28T07:38:30;16.63;;;8.50;;
46437;SDS011;32137;48.728;9.142;2023-02-28T07:40:56;17.88;;;8.90;;
46437;SDS011;32137;48.728;9.142;2023-02-28T07:43:21;15.52;;;7.97;;
46437;SDS011;32137;48.728;9.142;2023-02-28T07:45:47;15.60;;;9.38;;
46437;SDS011;32137;48.728;9.142;2023-02-28T07:48:12;14.73;;;8.68;;
46437;SDS011;32137;48.728;9.142;2023-02-28T07:50:38;15.93;;;9.48;;
46437;SDS011;32137;48.728;9.142;2023-02-28T07:53:03;14.07;;;7.88;;
46437;SDS011;32137;48.728;9.142;2023-02-28T07:55:29;20.70;;;8.65;;
46437;SDS011;32137;48.728;9.142;2023-02-28T07:57:56;14.50;;;8.88;;
46437;SDS011;32137;48.728;9.142;2023-02-28T08:00:22;17.05;;;8.63;;
46437;SDS011;32137;48.728;9.142;2023-02-28T08:02:48;14.90;;;8.10;;
46437;SDS011;32137;48.728;9.142;2023-02-28T08:05:13;13.73;;;8.35;;
46437;SDS011;32137;48.728;9.142;2023-02-28T08:07:39;20.13;;;9.02;;
46437;SDS011;32137;48.728;9.142;2023-02-28T08:10:05;12.98;;;8.27;;
46437;SDS011;32137;48.728;9.142;2023-02-28T08:12:31;16.10;;;8.73;;
46437;SDS011;32137;48.728;9.142;2023-02-28T08:14:56;13.20;;;7.93;;
46437;SDS011;32137;48.728;9.142;2023-02-28T08:17:22;17.17;;;8.48;;
46437;SDS011;32137;48.728;9.142;2023-02-28T08:19:48;17.75;;;9.55;;
46437;SDS011;32137;48.728;9.142;2023-02-28T08:22:14;17.02;;;10.35;;
46437;SDS011;32137;48.728;9.142;2023-02-28T08:24:40;13.45;;;8.63;;
46437;SDS011;32137;48.728;9.142;2023-02-28T08:27:07;16.60;;;9.57;;
46437;SDS011;32137;48.728;9.142;2023-02-28T08:29:33;12.70;;;8.07;;
46437;SDS011;32137;48.728;9.142;2023-02-28T08:31:59;16.70;;;9.25;;
46437;SDS011;32137;48.728;9.142;2023-02-28T08:34:24;18.25;;;9.70;;
46437;SDS011;32137;48.728;9.142;2023-02-28T08:36:50;12.45;;;8.65;;
46437;SDS011;32137;48.728;9.142;2023-02-28T08:39:15;13.55;;;8.35;;
46437;SDS011;32137;48.728;9.142;2023-02-28T08:41:41;18.63;;;9.13;;
46437;SDS011;32137;48.728;9.142;2023-02-28T08:44:07;16.75;;;8.02;;
46437;SDS011;32137;48.728;9.142;2023-02-28T08:46:33;16.05;;;8.75;;
46437;SDS011;32137;48.728;9.142;2023-02-28T08:48:58;15.13;;;8.88;;
46437;SDS011;32137;48.728;9.142;2023-02-28T08:51:26;16.73;;;9.10;;
46437;SDS011;32137;48.728;9.142;2023-02-28T08:53:53;13.98;;;8.75;;
46437;SDS011;32137;48.728;9.142;2023-02-28T08:56:20;16.90;;;9.73;;
46437;SDS011;32137;48.728;9.142;2023-02-28T08:58:46;22.80;;;11.30;;
46437;SDS011;32137;48.728;9.142;2023-02-28T09:01:14;15.38;;;8.20;;
46437;SDS011;32137;48.728;9.142;2023-02-28T09:03:44;12.13;;;7.78;;
46437;SDS011;32137;48.728;9.142;2023-02-28T09:06:11;18.33;;;9.90;;
46437;SDS011;32137;48.728;9.142;2023-02-28T09:08:37;34.80;;;13.98;;
46437;SDS011;32137;48.728;9.142;2023-02-28T10:18:57;18.05;;;8.93;;
46437;SDS011;32137;48.728;9.142;2023-02-28T10:23:59;15.93;;;9.65;;
46437;SDS011;32137;48.728;9.142;2023-02-28T10:26:29;14.55;;;8.25;;
46437;SDS011;32137;48.728;9.142;2023-02-28T10:28:57;12.38;;;8.15;;
46437;SDS011;32137;48.728;9.142;2023-02-28T10:31:22;14.52;;;8.98;;
46437;SDS011;32137;48.728;9.142;2023-02-28T10:33:48;21.48;;;10.15;;
46437;SDS011;32137;48.728;9.142;2023-02-28T10:36:15;19.33;;;9.88;;
46437;SDS011;32137;48.728;9.142;2023-02-28T10:38:43;16.58;;;8.80;;
46437;SDS011;32137;48.728;9.142;2023-02-28T10:41:11;14.18;;;8.90;;
46437;SDS011;32137;48.728;9.142;2023-02-28T10:43:51;16.48;;;9.32;;
46437;SDS011;32137;48.728;9.142;2023-02-28T10:46:18;15.18;;;9.55;;
46437;SDS011;32137;48.728;9.142;2023-02-28T10:48:58;17.80;;;9.20;;
46437;SDS011;32137;48.728;9.142;2023-02-28T10:51:27;16.08;;;8.55;;
46437;SDS011;32137;48.728;9.142;2023-02-28T10:54:01;19.42;;;9.88;;
46437;SDS011;32137;48.728;9.142;2023-02-28T10:56:28;18.10;;;9.82;;
46437;SDS011;32137;48.728;9.142;2023-02-28T10:59:02;20.00;;;9.60;;
46437;SDS011;32137;48.728;9.142;2023-02-28T11:02:14;19.17;;;9.45;;
46437;SDS011;32137;48.728;9.142;2023-02-28T11:04:54;16.92;;;9.38;;
46437;SDS011;32137;48.728;9.142;2023-02-28T11:07:21;18.08;;;10.23;;
46437;SDS011;32137;48.728;9.142;2023-02-28T11:09:48;18.02;;;9.07;;
46437;SDS011;32137;48.728;9.142;2023-02-28T11:12:19;14.65;;;8.98;;
46437;SDS011;32137;48.728;9.142;2023-02-28T11:15:00;14.40;;;9.50;;
46437;SDS011;32137;48.728;9.142;2023-02-28T11:17:30;12.77;;;9.38;;
46437;SDS011;32137;48.728;9.142;2023-02-28T11:19:58;16.65;;;10.15;;
46437;SDS011;32137;48.728;9.142;2023-02-28T11:22:29;18.95;;;9.40;;
46437;SDS011;32137;48.728;9.142;2023-02-28T11:24:59;14.15;;;9.25;;
46437;SDS011;32137;48.728;9.142;2023-02-28T11:29:57;15.50;;;10.10;;
46437;SDS011;32137;48.728;9.142;2023-02-28T11:32:30;18.55;;;9.90;;
46437;SDS011;32137;48.728;9.142;2023-02-28T11:35:03;17.20;;;9.63;;
46437;SDS011;32137;48.728;9.142;2023-02-28T11:37:40;16.67;;;10.75;;
46437;SDS011;32137;48.728;9.142;2023-02-28T11:40:12;16.10;;;10.45;;
46437;SDS011;32137;48.728;9.142;2023-02-28T11:42:44;17.23;;;9.88;;
46437;SDS011;32137;48.728;9.142;2023-02-28T11:48:27;17.90;;;10.55;;
46437;SDS011;32137;48.728;9.142;2023-02-28T11:51:01;18.23;;;8.90;;
46437;SDS011;32137;48.728;9.142;2023-02-28T11:56:44;12.05;;;9.88;;
46437;SDS011;32137;48.728;9.142;2023-02-28T12:05:20;15.05;;;9.52;;
46437;SDS011;32137;48.728;9.142;2023-02-28T12:07:54;17.55;;;10.32;;
46437;SDS011;32137;48.728;9.142;2023-02-28T12:10:22;15.50;;;10.63;;
46437;SDS011;32137;48.728;9.142;2023-02-28T12:21:23;14.30;;;9.57;;
46437;SDS011;32137;48.728;9.142;2023-02-28T12:24:11;16.42;;;10.10;;
46437;SDS011;32137;48.728;9.142;2023-02-28T12:26:44;24.83;;;12.60;;
46437;SDS011;32137;48.728;9.142;2023-02-28T12:29:28;15.95;;;10.30;;
46437;SDS011;32137;48.728;9.142;2023-02-28T12:34:31;14.40;;;9.20;;
46437;SDS011;32137;48.728;9.142;2023-02-28T12:39:30;16.58;;;9.77;;
46437;SDS011;32137;48.728;9.142;2023-02-28T12:42:11;13.77;;;8.77;;
46437;SDS011;32137;48.728;9.142;2023-02-28T12:44:52;13.32;;;8.73;;
46437;SDS011;32137;48.728;9.142;2023-02-28T12:49:50;14.20;;;10.00;;
46437;SDS011;32137;48.728;9.142;2023-02-28T12:52:17;13.55;;;8.63;;
46437;SDS011;32137;48.728;9.142;2023-02-28T12:54:52;15.02;;;9.50;;
46437;SDS011;32137;48.728;9.142;2023-02-28T13:00:00;13.13;;;9.15;;
46437;SDS011;32137;48.728;9.142;2023-02-28T13:05:32;14.75;;;8.63;;
46437;SDS011;32137;48.728;9.142;2023-02-28T13:10:49;15.07;;;9.38;;
46437;SDS011;32137;48.728;9.142;2023-02-28T13:13:23;14.60;;;9.38;;
46437;SDS011;32137;48.728;9.142;2023-02-28T13:16:06;13.98;;;9.68;;
46437;SDS011;32137;48.728;9.142;2023-02-28T13:21:08;14.32;;;9.07;;
46437;SDS011;32137;48.728;9.142;2023-02-28T13:26:21;17.45;;;9.75;;
46437;SDS011;32137;48.728;9.142;2023-02-28T13:28:57;17.52;;;9.25;;
46437;SDS011;32137;48.728;9.142;2023-02-28T13:31:25;15.95;;;9.07;;
46437;SDS011;32137;48.728;9.142;2023-02-28T13:38:55;12.63;;;8.93;;
46437;SDS011;32137;48.728;9.142;2023-02-28T13:47:18;14.38;;;9.73;;
46437;SDS011;32137;48.728;9.142;2023-02-28T13:52:21;13.20;;;8.90;;
46437;SDS011;32137;48.728;9.142;2023-02-28T14:06:31;14.45;;;9.25;;
46437;SDS011;32137;48.728;9.142;2023-02-28T14:09:06;16.85;;;10.13;;
46437;SDS011;32137;48.728;9.142;2023-02-28T14:11:53;19.02;;;10.10;;
46437;SDS011;32137;48.728;9.142;2023-02-28T14:17:04;18.73;;;12.70;;
46437;SDS011;32137;48.728;9.142;2023-02-28T14:19:34;14.52;;;9.40;;
46437;SDS011;32137;48.728;9.142;2023-02-28T14:33:19;11.27;;;8.35;;
46437;SDS011;32137;48.728;9.142;2023-02-28T14:41:28;13.27;;;8.73;;
46437;SDS011;32137;48.728;9.142;2023-02-28T14:43:55;11.70;;;9.20;;
46437;SDS011;32137;48.728;9.142;2023-02-28T14:46:23;11.77;;;8.23;;
46437;SDS011;32137;48.728;9.142;2023-02-28T14:48:55;12.38;;;8.95;;
46437;SDS011;32137;48.728;9.142;2023-02-28T14:51:21;12.98;;;9.15;;
46437;SDS011;32137;48.728;9.142;2023-02-28T14:53:57;15.32;;;9.48;;
46437;SDS011;32137;48.728;9.142;2023-02-28T14:56:35;12.95;;;8.43;;
46437;SDS011;32137;48.728;9.142;2023-02-28T14:59:02;11.68;;;8.68;;
46437;SDS011;32137;48.728;9.142;2023-02-28T15:01:29;13.60;;;9.25;;
46437;SDS011;32137;48.728;9.142;2023-02-28T15:03:58;13.35;;;8.73;;
46437;SDS011;32137;48.728;9.142;2023-02-28T15:06:26;12.07;;;8.50;;
46437;SDS011;32137;48.728;9.142;2023-02-28T15:11:40;12.15;;;8.32;;
46437;SDS011;32137;48.728;9.142;2023-02-28T15:14:06;10.57;;;8.05;;
46437;SDS011;32137;48.728;9.142;2023-02-28T15:16:36;17.05;;;10.57;;
46437;SDS011;32137;48.728;9.142;2023-02-28T15:21:40;16.25;;;8.52;;
46437;SDS011;32137;48.728;9.142;2023-02-28T15:24:23;15.18;;;9.15;;
46437;SDS011;32137;48.728;9.142;2023-02-28T15:26:58;11.35;;;9.05;;
46437;SDS011;32137;48.728;9.142;2023-02-28T15:29:28;11.75;;;8.40;;
46437;SDS011;32137;48.728;9.142;2023-02-28T15:32:04;12.75;;;8.70;;
46437;SDS011;32137;48.728;9.142;2023-02-28T15:37:46;19.25;;;9.02;;
46437;SDS011;32137;48.728;9.142;2023-02-28T15:40:03;11.38;;;8.45;;
46437;SDS011;32137;48.728;9.142;2023-02-28T15:42:58;14.25;;;8.85;;
46437;SDS011;32137;48.728;9.142;2023-02-28T15:45:59;13.18;;;8.50;;
46437;SDS011;32137;48.728;9.142;2023-02-28T15:48:32;14.80;;;8.90;;
46437;SDS011;32137;48.728;9.142;2023-02-28T15:53:32;21.90;;;13.00;;
46437;SDS011;32137;48.728;9.142;2023-02-28T15:56:13;18.13;;;9.68;;
46437;SDS011;32137;48.728;9.142;2023-02-28T15:58:53;13.55;;;9.20;;
46437;SDS011;32137;48.728;9.142;2023-02-28T16:01:29;16.10;;;8.82;;
46437;SDS011;32137;48.728;9.142;2023-02-28T16:04:02;14.52;;;8.98;;
46437;SDS011;32137;48.728;9.142;2023-02-28T16:06:37;14.60;;;8.70;;
46437;SDS011;32137;48.728;9.142;2023-02-28T16:09:05;13.95;;;9.02;;
46437;SDS011;32137;48.728;9.142;2023-02-28T16:11:33;17.75;;;10.48;;
46437;SDS011;32137;48.728;9.142;2023-02-28T16:14:02;20.25;;;11.30;;
46437;SDS011;32137;48.728;9.142;2023-02-28T16:16:28;14.55;;;9.48;;
46437;SDS011;32137;48.728;9.142;2023-02-28T16:18:53;14.50;;;9.85;;
46437;SDS011;32137;48.728;9.142;2023-02-28T16:21:20;15.00;;;9.00;;
46437;SDS011;32137;48.728;9.142;2023-02-28T16:23:45;19.60;;;9.57;;
46437;SDS011;32137;48.728;9.142;2023-02-28T16:26:18;14.85;;;9.48;;
46437;SDS011;32137;48.728;9.142;2023-02-28T16:28:46;16.90;;;10.18;;
46437;SDS011;32137;48.728;9.142;2023-02-28T16:31:12;16.40;;;10.48;;
46437;SDS011;32137;48.728;9.142;2023-02-28T16:33:42;13.13;;;8.93;;
46437;SDS011;32137;48.728;9.142;2023-02-28T16:36:12;16.40;;;10.30;;
46437;SDS011;32137;48.728;9.142;2023-02-28T16:38:40;22.88;;;10.43;;
46437;SDS011;32137;48.728;9.142;2023-02-28T16:41:05;17.35;;;10.23;;
46437;SDS011;32137;48.728;9.142;2023-02-28T16:43:31;16.00;;;9.20;;
46437;SDS011;32137;48.728;9.142;2023-02-28T16:45:57;15.05;;;9.98;;
46437;SDS011;32137;48.728;9.142;2023-02-28T16:48:23;13.90;;;9.13;;
46437;SDS011;32137;48.728;9.142;2023-02-28T16:50:50;14.60;;;9.60;;
46437;SDS011;32137;48.728;9.142;2023-02-28T16:53:16;13.85;;;9.45;;
46437;SDS011;32137;48.728;9.142;2023-02-28T16:55:41;16.95;;;9.80;;
46437;SDS011;32137;48.728;9.142;2023-02-28T16:58:10;18.33;;;10.07;;
46437;SDS011;32137;48.728;9.142;2023-02-28T17:00:40;15.02;;;10.15;;
46437;SDS011;32137;48.728;9.142;2023-02-28T17:03:22;13.93;;;9.82;;
46437;SDS011;32137;48.728;9.142;2023-02-28T17:05:51;16.60;;;10.48;;
46437;SDS011;32137;48.728;9.142;2023-02-28T17:08:16;17.88;;;10.63;;
46437;SDS011;32137;48.728;9.142;2023-02-28T17:10:42;18.33;;;10.30;;
46437;SDS011;32137;48.728;9.142;2023-02-28T17:13:08;16.70;;;9.95;;
46437;SDS011;32137;48.728;9.142;2023-02-28T17:15:34;19.90;;;10.30;;
46437;SDS011;32137;48.728;9.142;2023-02-28T17:18:01;23.45;;;12.82;;
46437;SDS011;32137;48.728;9.142;2023-02-28T17:20:27;26.15;;;13.80;;
46437;SDS011;32137;48.728;9.142;2023-02-28T17:22:53;15.85;;;10.23;;
46437;SDS011;32137;48.728;9.142;2023-02-28T17:25:19;16.08;;;10.10;;
46437;SDS011;32137;48.728;9.142;2023-02-28T17:27:45;19.25;;;10.85;;
46437;SDS011;32137;48.728;9.142;2023-02-28T17:30:16;14.02;;;9.88;;
46437;SDS011;32137;48.728;9.142;2023-02-28T17:32:44;17.88;;;10.02;;
46437;SDS011;32137;48.728;9.142;2023-02-28T17:35:10;16.02;;;11.25;;
46437;SDS011;32137;48.728;9.142;2023-02-28T17:37:36;18.45;;;10.80;;
46437;SDS011;32137;48.728;9.142;2023-02-28T17:40:02;23.00;;;11.18;;
46437;SDS011;32137;48.728;9.142;2023-02-28T17:42:28;16.23;;;10.13;;
46437;SDS011;32137;48.728;9.142;2023-02-28T17:44:54;18.13;;;10.40;;
46437;SDS011;32137;48.728;9.142;2023-02-28T17:47:20;17.70;;;10.13;;
46437;SDS011;32137;48.728;9.142;2023-02-28T17:49:45;19.08;;;12.07;;
46437;SDS011;32137;48.728;9.142;2023-02-28T17:52:11;20.38;;;11.52;;
46437;SDS011;32137;48.728;9.142;2023-02-28T17:54:36;18.13;;;11.45;;
46437;SDS011;32137;48.728;9.142;2023-02-28T17:57:02;18.48;;;9.93;;
46437;SDS011;32137;48.728;9.142;2023-02-28T17:59:27;25.13;;;12.52;;
46437;SDS011;32137;48.728;9.142;2023-02-28T18:01:58;17.95;;;10.32;;
46437;SDS011;32137;48.728;9.142;2023-02-28T18:04:27;16.55;;;10.68;;